LFBO/TLS METAR and TAF weather

Enter ICAO airport designator
Station Type Date Time Source
LFBO METAR 2019/04/25 17:30 UTC NOAA

LFBO 251730Z AUTO 27013G24KT 240V310 9999 ///CB 16/06 Q1009 BECMG NSC


Station Type Date Time Source
LFBO Decoded METAR 2019/04/25 17:30 UTC NOAA

Toulouse / Blagnac, France (LFBO) 43-38N 001-22E 153M
Apr 25, 2019 - 01:30 PM EDT / 2019.04.25 1730 UTC
Wind: from the W (270 degrees) at 15 MPH (13 KT) gusting to 28 MPH (24 KT) (direction variable):0
Visibility: greater than 7 mile(s):0
Weather: Cumulonimbus clouds observed
Temperature: 60 F (16 C)
Dew Point: 42 F (6 C)
Relative Humidity: 51%
Pressure (altimeter): 29.80 in. Hg (1009 hPa)
ob: LFBO 251730Z AUTO 27013G24KT 240V310 9999 ///CB 16/06 Q1009 BECMG NSC
cycle: 17

Station Type Date Time Source
LFBO TAF 2019/04/25 18:21 UTC NOAA

TAF LFBO 251700Z 2518/2624 23006KT CAVOK
BECMG 2522/2524 VRB02KT
BECMG 2608/2610 26010KT SCT020TCU
TEMPO 2611/2616 26015G30KT 4000 SHRA BKN010 SCT025TCU
BECMG 2618/2620 SCT030

Example: see airport list